createdAt,value
2022-08-21T00:01:34.113Z,21.56
2022-08-21T00:04:55.848Z,21.50
2022-08-21T00:10:56.849Z,21.48
2022-08-21T00:16:37.145Z,21.46
2022-08-21T00:19:18.332Z,21.42
2022-08-21T00:22:26.027Z,21.46
2022-08-21T00:25:34.237Z,21.48
2022-08-21T00:28:43.426Z,21.44
2022-08-21T00:32:09.610Z,21.38
2022-08-21T00:34:59.250Z,21.34
2022-08-21T00:38:08.813Z,21.34
2022-08-21T00:40:46.049Z,21.31
2022-08-21T00:43:22.441Z,21.26
2022-08-21T00:56:34.750Z,21.24
2022-08-21T01:03:25.375Z,21.20
2022-08-21T01:09:08.524Z,21.12
2022-08-21T01:11:59.189Z,21.18
2022-08-21T01:14:49.509Z,21.19
2022-08-21T01:17:57.157Z,21.16
2022-08-21T01:21:05.094Z,21.13
2022-08-21T01:27:20.805Z,21.11
2022-08-21T01:30:47.107Z,21.10
2022-08-21T01:33:37.758Z,21.12
2022-08-21T01:39:36.416Z,21.05
2022-08-21T01:42:10.311Z,21.01
2022-08-21T01:44:43.137Z,20.98
2022-08-21T01:47:51.937Z,20.92
2022-08-21T01:50:42.451Z,20.90
2022-08-21T01:54:08.310Z,20.89
2022-08-21T01:59:50.617Z,20.64
2022-08-21T02:02:23.125Z,20.64
2022-08-21T02:07:49.373Z,20.66
2022-08-21T02:13:49.903Z,20.77
2022-08-21T02:17:00.475Z,20.83
2022-08-21T02:20:00.323Z,20.69
2022-08-21T02:22:32.875Z,20.65
2022-08-21T02:25:42.585Z,20.62
2022-08-21T02:31:07.935Z,20.58
2022-08-21T02:33:40.664Z,20.52
2022-08-21T02:39:56.671Z,20.32
2022-08-21T02:43:08.650Z,20.30
2022-08-21T02:48:51.534Z,20.22
2022-08-21T02:51:59.001Z,20.17
2022-08-21T02:54:31.537Z,20.09
2022-08-21T02:57:40.061Z,20.09
2022-08-21T03:00:31.701Z,20.02
2022-08-21T03:06:31.010Z,20.01
2022-08-21T03:09:21.114Z,20.00
2022-08-21T03:15:38.849Z,19.91
2022-08-21T03:18:46.498Z,19.92
2022-08-21T03:21:53.594Z,19.97
2022-08-21T03:24:44.505Z,19.97
2022-08-21T03:28:09.125Z,19.99
2022-08-21T03:31:03.152Z,20.06
2022-08-21T03:33:35.712Z,20.06
2022-08-21T03:36:11.028Z,20.06
2022-08-21T03:39:19.782Z,20.03
2022-08-21T03:42:26.812Z,19.95
2022-08-21T03:45:01.855Z,19.78
2022-08-21T03:48:09.375Z,19.69
2022-08-21T03:51:02.891Z,19.68
2022-08-21T03:54:28.840Z,19.59
2022-08-21T03:57:56.672Z,19.49
2022-08-21T04:00:46.233Z,19.42
2022-08-21T04:03:18.996Z,19.33
2022-08-21T04:06:10.891Z,19.27
2022-08-21T04:09:37.007Z,19.21
2022-08-21T04:12:27.697Z,19.18
2022-08-21T04:15:02.858Z,19.22
2022-08-21T04:18:11.791Z,19.24
2022-08-21T04:21:01.718Z,19.25
2022-08-21T04:23:53.027Z,19.27
2022-08-21T04:26:25.500Z,19.28
2022-08-21T04:29:35.180Z,19.26
2022-08-21T04:35:54.762Z,19.19
2022-08-21T04:39:21.818Z,19.35
2022-08-21T04:41:57.897Z,19.47
2022-08-21T04:44:51.502Z,19.69
2022-08-21T04:47:24.782Z,20.12
2022-08-21T04:50:17.179Z,20.77
2022-08-21T04:53:20.333Z,21.44
2022-08-21T04:56:15.014Z,22.05
2022-08-21T05:02:49.187Z,23.18
2022-08-21T05:05:56.431Z,23.48
2022-08-21T05:11:57.467Z,24.34
2022-08-21T05:17:37.149Z,25.12
2022-08-21T05:24:29.457Z,26.08
2022-08-21T05:30:28.617Z,26.71
2022-08-21T05:37:07.470Z,26.92
2022-08-21T05:46:48.444Z,27.44
2022-08-21T05:49:38.246Z,27.67
2022-08-21T05:52:44.820Z,28.06
2022-08-21T05:55:17.442Z,28.54
2022-08-21T05:58:43.704Z,28.84
2022-08-21T06:01:17.099Z,29.03
2022-08-21T06:04:24.149Z,29.18
2022-08-21T06:07:13.609Z,29.54
2022-08-21T06:13:12.816Z,29.79
2022-08-21T06:15:45.610Z,29.87
2022-08-21T06:18:18.855Z,29.89
2022-08-21T06:21:12.393Z,30.08
2022-08-21T06:23:45.668Z,30.12
2022-08-21T06:26:35.793Z,30.21
2022-08-21T06:32:35.843Z,30.61
2022-08-21T06:35:44.717Z,30.90
2022-08-21T06:38:53.817Z,31.21
2022-08-21T06:44:38.821Z,31.74
2022-08-21T06:47:11.339Z,31.72
2022-08-21T06:53:16.880Z,32.05
2022-08-21T06:59:31.773Z,31.90
2022-08-21T07:02:40.739Z,31.96
2022-08-21T07:05:33.757Z,31.96
2022-08-21T07:08:25.308Z,32.25
2022-08-21T07:11:02.641Z,32.38
2022-08-21T07:17:20.454Z,32.50
2022-08-21T07:20:12.129Z,32.36
2022-08-21T07:23:25.026Z,32.61
2022-08-21T07:29:22.669Z,33.02
2022-08-21T07:39:09.050Z,32.93
2022-08-21T07:42:15.682Z,33.39
2022-08-21T07:48:51.958Z,32.88
2022-08-21T07:51:45.799Z,32.56
2022-08-21T07:54:37.437Z,32.27
2022-08-21T07:57:47.792Z,32.22
2022-08-21T08:04:26.476Z,32.71
2022-08-21T08:06:59.042Z,32.93
2022-08-21T08:10:24.535Z,33.01
2022-08-21T08:13:51.026Z,33.18
2022-08-21T08:16:40.678Z,33.33
2022-08-21T08:27:13.851Z,33.61
2022-08-21T08:30:22.840Z,33.97
2022-08-21T08:36:08.098Z,33.56
2022-08-21T08:38:40.809Z,33.69
2022-08-21T08:42:33.945Z,34.14
2022-08-21T08:45:31.139Z,34.41
2022-08-21T08:48:46.355Z,34.40
2022-08-21T08:51:47.071Z,34.47
2022-08-21T08:55:06.207Z,34.57
2022-08-21T09:01:58.958Z,34.87
2022-08-21T09:04:32.423Z,35.06
2022-08-21T09:07:45.095Z,35.52
2022-08-21T09:10:40.421Z,35.35
2022-08-21T09:14:29.522Z,35.24
2022-08-21T09:20:42.272Z,35.88
2022-08-21T09:26:34.014Z,36.45
2022-08-21T09:32:41.540Z,36.30
2022-08-21T09:35:51.327Z,36.13
2022-08-21T09:38:50.022Z,35.85
2022-08-21T09:41:58.123Z,36.16
2022-08-21T09:47:39.203Z,36.08
2022-08-21T09:50:48.761Z,36.28
2022-08-21T09:53:26.306Z,36.37
2022-08-21T09:56:19.114Z,36.33
2022-08-21T09:58:56.087Z,36.49
2022-08-21T10:01:30.073Z,36.62
2022-08-21T10:04:56.497Z,36.68
2022-08-21T10:08:04.310Z,36.51
2022-08-21T10:11:13.092Z,35.46
2022-08-21T10:14:16.034Z,35.06
2022-08-21T10:17:00.523Z,34.93
2022-08-21T10:26:56.689Z,34.62
2022-08-21T10:33:39.493Z,34.00
2022-08-21T10:36:38.445Z,33.93
2022-08-21T10:39:35.119Z,33.87
2022-08-21T10:42:48.893Z,33.69
2022-08-21T10:48:55.309Z,33.30
2022-08-21T10:58:40.585Z,33.89
2022-08-21T11:02:16.273Z,34.45
2022-08-21T11:05:30.395Z,34.77
2022-08-21T11:11:38.287Z,35.36
2022-08-21T11:15:03.313Z,35.18
2022-08-21T11:25:10.253Z,33.95
2022-08-21T11:28:04.560Z,33.18
2022-08-21T11:31:16.870Z,32.84
2022-08-21T11:34:41.771Z,32.89
2022-08-21T11:37:49.033Z,32.68
2022-08-21T11:40:46.926Z,32.60
2022-08-21T11:47:02.251Z,32.66
2022-08-21T11:49:52.196Z,32.89
2022-08-21T11:56:09.966Z,33.62
2022-08-21T11:59:02.418Z,33.67
2022-08-21T12:08:01.086Z,34.65
2022-08-21T12:14:17.830Z,35.61
2022-08-21T12:16:52.378Z,35.82
2022-08-21T12:19:35.816Z,36.10
2022-08-21T12:22:37.621Z,35.73
2022-08-21T12:25:30.765Z,35.92
2022-08-21T12:28:39.960Z,35.39
2022-08-21T12:31:47.023Z,35.39
2022-08-21T12:38:09.909Z,34.96
2022-08-21T12:41:05.674Z,34.91
2022-08-21T12:44:03.320Z,34.74
2022-08-21T12:51:01.444Z,34.82
2022-08-21T12:59:56.335Z,35.67
2022-08-21T13:03:23.032Z,35.70
2022-08-21T13:06:16.312Z,35.75
2022-08-21T13:09:29.955Z,35.75
2022-08-21T13:12:40.298Z,35.68
2022-08-21T13:15:13.532Z,35.70
2022-08-21T13:18:21.898Z,35.84
2022-08-21T13:21:04.942Z,35.87
2022-08-21T13:24:38.837Z,35.73
2022-08-21T13:27:23.266Z,35.55
2022-08-21T13:30:27.138Z,35.37
2022-08-21T13:33:37.607Z,35.73
2022-08-21T13:36:34.015Z,35.96
2022-08-21T13:42:33.833Z,36.16
2022-08-21T13:48:22.462Z,36.22
2022-08-21T13:50:55.088Z,35.75
2022-08-21T13:53:53.139Z,35.70
2022-08-21T13:56:48.796Z,35.75
2022-08-21T13:59:40.401Z,35.65
2022-08-21T14:02:18.329Z,35.72
2022-08-21T14:05:34.803Z,35.22
2022-08-21T14:08:30.194Z,35.23
2022-08-21T14:11:37.335Z,35.25
2022-08-21T14:14:28.457Z,35.08
2022-08-21T14:17:24.432Z,34.84
2022-08-21T14:20:14.311Z,34.47
2022-08-21T14:26:52.383Z,33.91
2022-08-21T14:30:17.783Z,33.90
2022-08-21T14:33:28.607Z,33.85
2022-08-21T14:36:37.737Z,33.67
2022-08-21T14:39:27.883Z,33.46
2022-08-21T14:42:02.093Z,33.29
2022-08-21T14:44:33.025Z,33.20
2022-08-21T14:50:47.855Z,33.07
2022-08-21T14:57:03.892Z,32.96
2022-08-21T14:59:53.475Z,32.90
2022-08-21T15:02:47.513Z,32.84
2022-08-21T15:09:23.810Z,32.58
2022-08-21T15:12:15.824Z,32.38
2022-08-21T15:18:16.162Z,31.92
2022-08-21T15:27:58.003Z,31.39
2022-08-21T15:33:56.337Z,30.15
2022-08-21T15:37:09.082Z,29.66
2022-08-21T15:39:59.146Z,29.29
2022-08-21T15:42:32.592Z,29.11
2022-08-21T15:45:40.732Z,28.94
2022-08-21T15:48:30.566Z,28.78
2022-08-21T15:51:21.491Z,28.62
2022-08-21T15:54:28.466Z,28.64
2022-08-21T16:00:46.154Z,28.56
2022-08-21T16:03:37.139Z,28.48
2022-08-21T16:08:59.203Z,28.26
2022-08-21T16:11:49.083Z,28.19
2022-08-21T16:14:40.484Z,28.12
2022-08-21T16:20:43.178Z,28.01
2022-08-21T16:24:08.739Z,28.11
2022-08-21T16:26:58.528Z,28.16
2022-08-21T16:30:09.623Z,28.10
2022-08-21T16:36:49.247Z,27.64
2022-08-21T16:39:55.986Z,27.65
2022-08-21T16:43:05.921Z,27.62
2022-08-21T16:46:33.441Z,27.56
2022-08-21T16:49:42.002Z,27.46
2022-08-21T16:52:16.741Z,27.38
2022-08-21T16:54:47.758Z,27.29
2022-08-21T16:57:55.797Z,27.10
2022-08-21T17:00:46.990Z,27.00
2022-08-21T17:04:31.406Z,26.88
2022-08-21T17:07:21.266Z,26.76
2022-08-21T17:10:13.614Z,26.66
2022-08-21T17:22:27.518Z,26.54
2022-08-21T17:25:17.635Z,26.50
2022-08-21T17:28:10.728Z,26.50
2022-08-21T17:31:06.933Z,26.34
2022-08-21T17:36:41.021Z,26.30
2022-08-21T17:39:21.976Z,26.31
2022-08-21T17:42:12.258Z,26.33
2022-08-21T17:44:46.825Z,26.30
2022-08-21T17:48:15.285Z,26.28
